createdAt,value
2022-11-28T00:01:50.048Z,101228.09
2022-11-28T00:04:53.392Z,101225.47
2022-11-28T00:07:55.873Z,101231.72
2022-11-28T00:10:59.037Z,101231.66
2022-11-28T00:14:01.665Z,101228.12
2022-11-28T00:17:04.439Z,101235.22
2022-11-28T00:20:07.590Z,101236.97
2022-11-28T00:23:10.819Z,101236.97
2022-11-28T00:26:16.961Z,101229.03
2022-11-28T00:29:19.982Z,101231.72
2022-11-28T00:32:22.590Z,101231.75
2022-11-28T00:35:25.393Z,101224.63
2022-11-28T00:38:28.144Z,101218.41
2022-11-28T00:41:31.514Z,101212.28
2022-11-28T00:44:34.040Z,101213.13
2022-11-28T00:47:36.822Z,101214.09
2022-11-28T00:50:39.293Z,101219.47
2022-11-28T00:53:44.014Z,101210.66
2022-11-28T00:56:46.480Z,101211.56
2022-11-28T00:59:49.284Z,101212.53
2022-11-28T01:02:52.268Z,101205.44
2022-11-28T01:05:55.131Z,101202.69
2022-11-28T01:09:03.275Z,101189.50
2022-11-28T01:12:06.210Z,101191.28
2022-11-28T01:15:11.690Z,101187.69
2022-11-28T01:18:14.495Z,101184.16
2022-11-28T01:21:17.552Z,101178.00
2022-11-28T01:24:20.297Z,101178.09
2022-11-28T01:27:22.792Z,101170.00
2022-11-28T01:30:28.726Z,101162.97
2022-11-28T01:33:31.146Z,101165.69
2022-11-28T01:36:34.260Z,101147.97
2022-11-28T01:39:37.910Z,101142.69
2022-11-28T01:42:40.709Z,101131.19
2022-11-28T01:45:43.495Z,101132.16
2022-11-28T01:48:46.273Z,101123.25
2022-11-28T01:51:51.569Z,101130.38
2022-11-28T01:54:58.144Z,101122.44
2022-11-28T01:58:00.986Z,101114.50
2022-11-28T02:01:04.549Z,101102.06
2022-11-28T02:04:07.472Z,101087.00
2022-11-28T02:07:10.025Z,101080.87
2022-11-28T02:10:32.058Z,101091.50
2022-11-28T02:13:56.768Z,101092.31
2022-11-28T02:17:40.944Z,101074.59
2022-11-28T02:21:16.797Z,101065.75
2022-11-28T02:24:41.570Z,101059.59
2022-11-28T02:28:26.048Z,101061.38
2022-11-28T02:31:41.229Z,101052.47
2022-11-28T02:35:02.411Z,101043.63
2022-11-28T02:38:17.018Z,101041.72
2022-11-28T02:41:35.611Z,101039.09
2022-11-28T02:44:56.210Z,101017.53
2022-11-28T02:48:08.877Z,101022.94
2022-11-28T02:51:13.773Z,101027.16
2022-11-28T02:54:18.306Z,101035.19
2022-11-28T02:57:21.262Z,101018.09
2022-11-28T03:00:29.513Z,101017.16
2022-11-28T03:03:41.356Z,101015.50
2022-11-28T03:06:54.438Z,101017.44
2022-11-28T03:10:25.411Z,101023.81
2022-11-28T03:13:47.814Z,101023.00
2022-11-28T03:17:02.364Z,101022.16
2022-11-28T03:20:26.888Z,101024.91
2022-11-28T03:23:44.851Z,101031.09
2022-11-28T03:27:03.304Z,101030.34
2022-11-28T03:30:12.323Z,101026.87
2022-11-28T03:33:16.543Z,101027.81
2022-11-28T03:36:26.813Z,101027.88
2022-11-28T03:39:34.015Z,101023.50
2022-11-28T03:42:42.579Z,101027.09
2022-11-28T03:45:52.392Z,101031.59
2022-11-28T03:48:57.754Z,101011.25
2022-11-28T03:52:16.146Z,101015.84
2022-11-28T03:55:30.829Z,101018.34
2022-11-28T03:59:21.260Z,101014.00
2022-11-28T04:02:36.341Z,100998.06
2022-11-28T04:05:46.751Z,100985.66
2022-11-28T04:08:56.494Z,100988.44
2022-11-28T04:12:07.792Z,100979.53
2022-11-28T04:15:15.279Z,100992.84
2022-11-28T04:18:28.167Z,100989.31
2022-11-28T04:21:40.701Z,100991.97
2022-11-28T04:24:50.488Z,100981.38
2022-11-28T04:28:05.514Z,100977.59
2022-11-28T04:31:08.911Z,100991.72
2022-11-28T04:34:14.804Z,100979.16
2022-11-28T04:37:18.591Z,100992.53
2022-11-28T04:40:23.311Z,100986.28
2022-11-28T04:43:36.036Z,100987.13
2022-11-28T04:46:50.282Z,100992.50
2022-11-28T04:49:54.037Z,100997.06
2022-11-28T04:53:01.803Z,100998.69
2022-11-28T04:56:12.431Z,100988.81
2022-11-28T04:59:15.456Z,100973.66
2022-11-28T05:02:19.350Z,100977.25
2022-11-28T05:05:24.592Z,100982.41
2022-11-28T05:08:27.391Z,100976.84
2022-11-28T05:11:30.951Z,100977.91
2022-11-28T05:14:33.719Z,100973.50
2022-11-28T05:17:41.677Z,100971.59
2022-11-28T05:20:45.059Z,100963.53
2022-11-28T05:23:48.230Z,100961.78
2022-11-28T05:26:51.554Z,100960.84
2022-11-28T05:29:54.347Z,100960.88
2022-11-28T05:32:58.722Z,100957.31
2022-11-28T05:36:09.888Z,100956.38
2022-11-28T05:39:15.370Z,100959.06
2022-11-28T05:42:18.026Z,100946.72
2022-11-28T05:45:20.917Z,100952.78
2022-11-28T05:48:24.503Z,100951.00
2022-11-28T05:51:27.248Z,100948.31
2022-11-28T05:54:30.706Z,100915.16
2022-11-28T05:57:37.057Z,100931.50
2022-11-28T06:00:42.050Z,100928.53
2022-11-28T06:03:45.365Z,100931.09
2022-11-28T06:06:50.202Z,100935.69
2022-11-28T06:09:53.174Z,100934.75
2022-11-28T06:12:55.622Z,100949.91
2022-11-28T06:15:58.431Z,100939.16
2022-11-28T06:19:02.914Z,100932.00
2022-11-28T06:22:06.191Z,100932.06
2022-11-28T06:25:08.774Z,100938.22
2022-11-28T06:28:11.972Z,100931.25
2022-11-28T06:31:18.075Z,100926.91
2022-11-28T06:34:20.919Z,100929.69
2022-11-28T06:37:23.394Z,100923.16
2022-11-28T06:40:28.260Z,100946.53
2022-11-28T06:43:31.055Z,100933.47
2022-11-28T06:46:33.867Z,100933.62
2022-11-28T06:49:37.012Z,100935.53
2022-11-28T06:52:40.038Z,100938.31
2022-11-28T06:55:43.012Z,100934.66
2022-11-28T06:58:46.461Z,100930.22
2022-11-28T07:01:49.580Z,100939.34
2022-11-28T07:04:52.707Z,100939.44
2022-11-28T07:07:55.291Z,100930.78
2022-11-28T07:10:58.949Z,100933.50
2022-11-28T07:14:02.167Z,100936.28
2022-11-28T07:17:05.421Z,100934.66
2022-11-28T07:20:08.905Z,100938.47
2022-11-28T07:23:11.830Z,100941.31
2022-11-28T07:26:17.450Z,100939.75
2022-11-28T07:29:20.485Z,100932.88
2022-11-28T07:32:23.235Z,100909.69
2022-11-28T07:35:26.063Z,100933.28
2022-11-28T07:38:28.579Z,100928.22
2022-11-28T07:41:31.777Z,100928.31
2022-11-28T07:44:34.292Z,100914.22
2022-11-28T07:47:37.432Z,100900.69
2022-11-28T07:50:47.250Z,100907.28
2022-11-28T07:53:51.369Z,100906.75
2022-11-28T08:00:17.632Z,100897.25
2022-11-28T08:03:23.364Z,100893.81
2022-11-28T08:06:30.435Z,100902.00
2022-11-28T08:09:37.839Z,100899.31
2022-11-28T08:12:40.647Z,100894.87
2022-11-28T08:15:43.888Z,100873.47
2022-11-28T08:18:47.914Z,100896.12
2022-11-28T08:21:51.877Z,100896.16
2022-11-28T08:24:54.983Z,100903.44
2022-11-28T08:27:58.576Z,100904.25
2022-11-28T08:31:12.539Z,100898.16
2022-11-28T08:34:15.836Z,100900.84
2022-11-28T08:37:18.461Z,100892.97
2022-11-28T08:40:22.156Z,100887.75
2022-11-28T08:43:24.865Z,100894.09
2022-11-28T08:46:27.859Z,100895.06
2022-11-28T08:49:30.679Z,100886.34
2022-11-28T08:52:33.491Z,100888.97
2022-11-28T08:55:40.514Z,100881.97
2022-11-28T08:58:44.837Z,100890.56
2022-11-28T09:01:47.693Z,100890.87
2022-11-28T09:04:50.717Z,100892.94
2022-11-28T09:07:54.935Z,100875.66
2022-11-28T09:10:58.293Z,100881.84
2022-11-28T09:14:00.942Z,100879.91
2022-11-28T09:17:03.818Z,100884.31
2022-11-28T09:20:07.736Z,100875.62
2022-11-28T09:23:10.607Z,100874.78
2022-11-28T09:26:21.861Z,100868.75
2022-11-28T09:29:24.753Z,100866.34
2022-11-28T09:32:27.450Z,100862.22
2022-11-28T09:35:30.698Z,100850.09
2022-11-28T09:38:33.486Z,100855.41
2022-11-28T09:41:51.258Z,100856.34
2022-11-28T09:45:21.404Z,100851.81
2022-11-28T09:48:51.081Z,100849.78
2022-11-28T09:51:59.123Z,100849.53
2022-11-28T09:55:20.451Z,100844.25
2022-11-28T09:58:40.266Z,100832.63
2022-11-28T10:01:53.509Z,100831.03
2022-11-28T10:05:34.864Z,100841.75
2022-11-28T10:08:40.384Z,100825.69
2022-11-28T10:11:47.666Z,100801.84
2022-11-28T10:14:50.166Z,100809.97
2022-11-28T10:18:09.058Z,100822.66
2022-11-28T10:21:59.458Z,100811.25
2022-11-28T10:25:06.882Z,100819.50
2022-11-28T10:28:26.446Z,100806.25
2022-11-28T10:31:43.568Z,100814.44
2022-11-28T10:34:59.293Z,100821.25
2022-11-28T10:38:02.935Z,100829.53
2022-11-28T10:41:28.881Z,100815.12
2022-11-28T10:44:55.608Z,100811.41
2022-11-28T10:48:29.532Z,100811.41
2022-11-28T10:51:45.380Z,100804.88
2022-11-28T10:55:18.987Z,100810.19
2022-11-28T10:58:24.869Z,100814.47
2022-11-28T11:01:30.168Z,100793.22
2022-11-28T11:04:33.953Z,100807.44
2022-11-28T11:07:36.560Z,100796.81
2022-11-28T11:10:47.232Z,100795.03
2022-11-28T11:14:06.598Z,100791.25
2022-11-28T11:17:32.761Z,100783.41
2022-11-28T11:20:40.600Z,100786.09
2022-11-28T11:23:44.686Z,100797.69
2022-11-28T11:26:48.696Z,100784.06
2022-11-28T11:29:52.220Z,100778.75
2022-11-28T11:32:56.699Z,100766.84
2022-11-28T11:36:00.276Z,100769.59
2022-11-28T11:39:12.517Z,100774.12
2022-11-28T11:42:24.318Z,100781.12
2022-11-28T11:45:34.417Z,100774.00
2022-11-28T11:48:45.229Z,100780.19
2022-11-28T11:51:56.219Z,100771.22
2022-11-28T11:54:59.397Z,100779.19
2022-11-28T11:58:05.861Z,100774.81
2022-11-28T12:01:11.946Z,100768.50
2022-11-28T12:04:45.171Z,100767.59
2022-11-28T12:08:02.939Z,100770.22
2022-11-28T12:11:23.722Z,100757.81
2022-11-28T12:14:32.381Z,100755.97
2022-11-28T12:18:03.411Z,100764.88
2022-11-28T12:21:22.926Z,100745.94
2022-11-28T12:25:00.730Z,100747.88
2022-11-28T12:28:12.544Z,100750.50
2022-11-28T12:31:37.115Z,100754.78
2022-11-28T12:35:01.249Z,100755.63
2022-11-28T12:38:19.857Z,100760.88
2022-11-28T12:41:58.368Z,100753.03
2022-11-28T12:45:19.313Z,100765.03
2022-11-28T12:48:59.856Z,100760.75
2022-11-28T12:52:18.064Z,100756.22
2022-11-28T12:55:26.411Z,100758.97
2022-11-28T12:59:08.014Z,100762.50
2022-11-28T13:02:16.544Z,100749.94
2022-11-28T13:05:43.892Z,100752.78
2022-11-28T13:09:25.458Z,100747.53
2022-11-28T13:12:56.595Z,100749.28
2022-11-28T13:16:05.376Z,100751.97
2022-11-28T13:19:37.843Z,100755.44
2022-11-28T13:23:09.103Z,100748.47
2022-11-28T13:26:30.527Z,100757.59
2022-11-28T13:29:52.141Z,100746.97
2022-11-28T13:33:07.340Z,100757.56
2022-11-28T13:39:45.586Z,100760.97
2022-11-28T13:43:14.432Z,100758.97
2022-11-28T13:46:17.286Z,100759.84
2022-11-28T13:49:24.159Z,100762.56
2022-11-28T13:52:29.384Z,100765.13
2022-11-28T13:55:39.204Z,100764.19
2022-11-28T13:59:04.582Z,100755.25
2022-11-28T14:02:36.853Z,100754.28
2022-11-28T14:05:41.653Z,100755.19
2022-11-28T14:08:46.754Z,100753.38
2022-11-28T14:12:03.051Z,100756.84
2022-11-28T14:15:29.801Z,100750.59
2022-11-28T14:18:59.132Z,100745.22
2022-11-28T14:22:07.851Z,100744.19
2022-11-28T14:25:19.635Z,100747.75
2022-11-28T14:28:28.047Z,100750.16
2022-11-28T14:31:40.334Z,100750.22
2022-11-28T14:34:49.800Z,100751.06
2022-11-28T14:37:55.496Z,100751.06
2022-11-28T14:41:11.942Z,100747.47
2022-11-28T14:44:52.100Z,100746.53
2022-11-28T14:48:15.969Z,100743.91
2022-11-28T14:51:19.833Z,100746.50
2022-11-28T14:54:29.140Z,100748.31
2022-11-28T14:57:36.120Z,100742.97
2022-11-28T15:00:55.391Z,100744.69
2022-11-28T15:04:23.114Z,100749.88
2022-11-28T15:07:54.601Z,100754.31
2022-11-28T15:11:17.596Z,100757.00
2022-11-28T15:14:22.409Z,100756.91
2022-11-28T15:17:30.856Z,100746.03
2022-11-28T15:20:37.618Z,100746.91
2022-11-28T15:23:40.645Z,100751.31
2022-11-28T15:26:43.125Z,100753.06
2022-11-28T15:29:55.125Z,100752.28
2022-11-28T15:33:00.726Z,100758.63
2022-11-28T15:36:23.027Z,100755.81
2022-11-28T15:39:32.104Z,100750.44
2022-11-28T15:42:35.977Z,100759.28
2022-11-28T15:45:40.022Z,100758.97
2022-11-28T15:48:51.118Z,100760.88
2022-11-28T15:51:55.887Z,100762.66
2022-11-28T15:54:58.784Z,100771.53
2022-11-28T15:58:30.482Z,100774.22
2022-11-28T16:01:33.969Z,100766.06
2022-11-28T16:04:38.216Z,100767.88
2022-11-28T16:07:44.696Z,100768.75
2022-11-28T16:10:48.116Z,100760.78
2022-11-28T16:13:52.020Z,100757.22
2022-11-28T16:16:58.834Z,100760.75
2022-11-28T16:20:02.682Z,100767.72
2022-11-28T16:23:14.948Z,100774.09
2022-11-28T16:26:33.481Z,100769.75
2022-11-28T16:29:36.754Z,100770.84
2022-11-28T16:32:40.344Z,100766.53
2022-11-28T16:35:43.217Z,100763.00
2022-11-28T16:38:47.348Z,100762.13
2022-11-28T16:42:04.453Z,100758.47
2022-11-28T16:45:18.578Z,100756.66
2022-11-28T16:48:21.848Z,100761.00
2022-11-28T16:51:30.671Z,100764.53
2022-11-28T16:54:33.450Z,100763.69
2022-11-28T16:57:46.623Z,100766.34
2022-11-28T17:01:00.898Z,100753.97
2022-11-28T17:04:04.234Z,100768.00
2022-11-28T17:07:11.102Z,100775.06
2022-11-28T17:10:14.322Z,100769.78
2022-11-28T17:13:17.544Z,100773.31
2022-11-28T17:16:22.366Z,100764.38
2022-11-28T17:19:25.692Z,100769.72
2022-11-28T17:22:44.109Z,100776.81
2022-11-28T17:25:47.486Z,100766.03
2022-11-28T17:28:50.437Z,100771.41
2022-11-28T17:31:55.282Z,100767.03
2022-11-28T17:34:59.953Z,100769.59
2022-11-28T17:38:03.302Z,100767.84
2022-11-28T17:41:13.411Z,100766.03
2022-11-28T17:44:21.848Z,100764.28
2022-11-28T17:47:24.618Z,100766.06
2022-11-28T17:50:28.430Z,100773.19
2022-11-28T17:53:31.161Z,100764.19
2022-11-28T17:56:34.200Z,100773.09
2022-11-28T17:59:37.699Z,100771.25
2022-11-28T18:02:42.339Z,100779.31
2022-11-28T18:05:47.582Z,100778.41
2022-11-28T18:08:50.983Z,100781.06
2022-11-28T18:11:54.301Z,100779.28
2022-11-28T18:14:59.013Z,100779.28
2022-11-28T18:18:03.903Z,100785.53
2022-11-28T18:21:08.792Z,100778.41
2022-11-28T18:24:11.619Z,100785.44
2022-11-28T18:27:14.605Z,100783.63
2022-11-28T18:30:18.924Z,100781.03
2022-11-28T18:33:21.748Z,100789.03
2022-11-28T18:36:27.190Z,100780.22
2022-11-28T18:39:31.358Z,100775.78
2022-11-28T18:42:34.580Z,100778.47
2022-11-28T18:45:38.476Z,100780.25
2022-11-28T18:48:45.633Z,100778.47
2022-11-28T18:51:48.629Z,100782.91
2022-11-28T18:54:51.655Z,100788.25
2022-11-28T18:57:54.369Z,100781.16
2022-11-28T19:00:58.130Z,100776.69
2022-11-28T19:04:03.511Z,100774.91
2022-11-28T19:07:06.627Z,100774.00
2022-11-28T19:10:09.826Z,100783.75
2022-11-28T19:13:13.003Z,100776.63
2022-11-28T19:16:18.461Z,100782.87
2022-11-28T19:19:22.776Z,100784.62
2022-11-28T19:22:26.767Z,100785.47
2022-11-28T19:25:29.621Z,100782.84
2022-11-28T19:28:32.360Z,100784.56
2022-11-28T19:31:36.887Z,100772.19
2022-11-28T19:34:39.929Z,100780.09
2022-11-28T19:37:43.017Z,100773.06
2022-11-28T19:40:45.793Z,100766.75
2022-11-28T19:43:48.873Z,100773.03
2022-11-28T19:46:52.955Z,100781.81
2022-11-28T19:49:56.187Z,100788.91
2022-11-28T19:52:58.983Z,100783.50
2022-11-28T19:56:07.188Z,100787.94
2022-11-28T19:59:10.998Z,100787.03
2022-11-28T20:02:14.733Z,100791.47
2022-11-28T20:05:18.644Z,100792.34
2022-11-28T20:08:22.893Z,100780.75
2022-11-28T20:11:36.063Z,100785.19
2022-11-28T20:14:39.375Z,100790.50
2022-11-28T20:17:42.212Z,100784.22
2022-11-28T20:20:44.946Z,100787.62
2022-11-28T20:23:51.446Z,100787.75
2022-11-28T20:26:54.204Z,100789.50
2022-11-28T20:29:57.395Z,100785.91
2022-11-28T20:33:00.362Z,100791.22
2022-11-28T20:36:11.827Z,100789.41
2022-11-28T20:39:14.804Z,100784.97
2022-11-28T20:42:17.907Z,100788.47
2022-11-28T20:45:20.701Z,100779.63
2022-11-28T20:48:23.819Z,100785.81
2022-11-28T20:51:28.514Z,100777.72
2022-11-28T20:54:31.575Z,100770.66
2022-11-28T20:57:34.019Z,100783.09
2022-11-28T21:00:36.802Z,100781.31
2022-11-28T21:03:39.537Z,100794.53
2022-11-28T21:06:44.046Z,100789.22
2022-11-28T21:09:47.033Z,100790.16
2022-11-28T21:12:50.183Z,100781.25
2022-11-28T21:15:53.653Z,100785.66
2022-11-28T21:18:57.855Z,100793.63
2022-11-28T21:22:00.586Z,100788.16
2022-11-28T21:25:03.556Z,100803.31
2022-11-28T21:28:06.522Z,100801.47
2022-11-28T21:31:14.658Z,100802.19
2022-11-28T21:34:17.817Z,100817.34
2022-11-28T21:37:20.680Z,100803.91
2022-11-28T21:40:23.510Z,100804.75
2022-11-28T21:43:28.295Z,100806.53
2022-11-28T21:46:30.917Z,100806.50
2022-11-28T21:49:33.963Z,100812.69
2022-11-28T21:52:37.091Z,100809.97
2022-11-28T21:55:39.888Z,100811.88
2022-11-28T21:58:42.627Z,100802.94
2022-11-28T22:01:45.607Z,100807.38
2022-11-28T22:04:48.523Z,100805.56
2022-11-28T22:07:51.133Z,100807.41
2022-11-28T22:10:54.023Z,100814.41
2022-11-28T22:13:56.663Z,100813.44
2022-11-28T22:16:59.701Z,100804.53
2022-11-28T22:20:02.396Z,100802.72
2022-11-28T22:23:05.917Z,100806.28
2022-11-28T22:26:08.952Z,100803.50
2022-11-28T22:29:11.726Z,100800.69
2022-11-28T22:32:15.578Z,100798.97
2022-11-28T22:35:18.398Z,100789.22
2022-11-28T22:38:20.923Z,100792.72
2022-11-28T22:41:28.803Z,100792.63
2022-11-28T22:44:33.679Z,100790.84
2022-11-28T22:47:37.097Z,100781.12
2022-11-28T22:50:40.888Z,100786.41
2022-11-28T22:53:44.249Z,100793.50
2022-11-28T22:56:46.858Z,100788.06
2022-11-28T22:59:49.740Z,100785.22
2022-11-28T23:02:52.663Z,100773.53
2022-11-28T23:05:55.697Z,100786.47
2022-11-28T23:08:59.592Z,100781.97
2022-11-28T23:12:03.649Z,100794.38
2022-11-28T23:15:07.179Z,100788.06
2022-11-28T23:18:09.984Z,100777.34
2022-11-28T23:21:13.329Z,100784.44
2022-11-28T23:24:18.681Z,100795.94
2022-11-28T23:27:21.404Z,100791.59
2022-11-28T23:30:25.443Z,100785.28
2022-11-28T23:33:27.961Z,100786.88
2022-11-28T23:36:42.964Z,100784.16
2022-11-28T23:39:46.395Z,100783.13
2022-11-28T23:42:49.590Z,100786.53
2022-11-28T23:45:52.120Z,100779.34
2022-11-28T23:48:55.237Z,100780.19
2022-11-28T23:51:57.779Z,100790.78
2022-11-28T23:55:00.600Z,100786.31
2022-11-28T23:58:03.093Z,100783.66
